createdAt,value
2022-07-30T00:03:51.583Z,8.70
2022-07-30T00:07:53.192Z,9.60
2022-07-30T00:11:54.308Z,8.27
2022-07-30T00:15:55.445Z,9.40
2022-07-30T00:19:56.692Z,9.20
2022-07-30T00:24:01.660Z,8.40
2022-07-30T00:28:00.862Z,8.20
2022-07-30T00:32:02.106Z,9.67
2022-07-30T00:36:03.845Z,8.57
2022-07-30T00:40:07.306Z,8.00
2022-07-30T00:44:08.538Z,8.20
2022-07-30T00:48:11.181Z,9.33
2022-07-30T00:52:12.901Z,7.87
2022-07-30T00:56:14.044Z,9.50
2022-07-30T01:00:17.005Z,11.00
2022-07-30T01:04:18.240Z,8.90
2022-07-30T01:08:19.462Z,9.57
2022-07-30T01:12:23.918Z,9.27
2022-07-30T01:16:25.203Z,9.50
2022-07-30T01:20:36.150Z,9.70
2022-07-30T01:24:44.166Z,11.30
2022-07-30T01:28:51.943Z,10.07
2022-07-30T01:32:54.549Z,10.50
2022-07-30T01:36:58.788Z,10.60
2022-07-30T01:41:01.456Z,10.33
2022-07-30T01:45:04.469Z,12.17
2022-07-30T01:49:07.717Z,11.23
2022-07-30T01:53:17.056Z,8.53
2022-07-30T01:57:20.186Z,9.67
2022-07-30T02:01:22.862Z,9.00
2022-07-30T02:05:26.052Z,8.37
2022-07-30T02:09:31.088Z,8.20
2022-07-30T02:13:35.530Z,8.50
2022-07-30T02:17:44.979Z,8.20
2022-07-30T02:21:50.727Z,8.37
2022-07-30T02:25:51.104Z,8.50
2022-07-30T02:29:55.244Z,9.70
2022-07-30T02:34:00.376Z,8.40
2022-07-30T02:38:03.046Z,7.60
2022-07-30T02:42:07.027Z,7.97
2022-07-30T02:46:11.042Z,8.10
2022-07-30T02:50:14.903Z,8.40
2022-07-30T02:54:18.339Z,9.57
2022-07-30T02:58:22.658Z,11.30
2022-07-30T03:02:28.969Z,9.50
2022-07-30T03:06:28.750Z,9.70
2022-07-30T03:10:31.303Z,10.47
2022-07-30T03:14:32.541Z,8.80
2022-07-30T03:18:35.681Z,10.40
2022-07-30T03:22:40.693Z,8.93
2022-07-30T03:26:43.745Z,8.63
2022-07-30T03:30:45.251Z,8.67
2022-07-30T03:34:47.794Z,8.77
2022-07-30T03:38:49.809Z,8.43
2022-07-30T03:42:51.739Z,8.47
2022-07-30T03:46:54.476Z,8.90
2022-07-30T03:50:57.016Z,9.87
2022-07-30T03:54:59.034Z,10.23
2022-07-30T03:59:01.094Z,11.00
2022-07-30T04:03:02.318Z,11.20
2022-07-30T04:07:03.820Z,11.20
2022-07-30T04:11:05.165Z,12.40
2022-07-30T04:16:37.760Z,10.93
2022-07-30T04:19:27.059Z,12.30
2022-07-30T04:23:28.399Z,12.53
2022-07-30T04:27:31.245Z,13.70
2022-07-30T04:31:39.803Z,14.40
2022-07-30T04:35:51.216Z,13.17
2022-07-30T04:39:41.368Z,12.27
2022-07-30T04:43:42.566Z,8.80
2022-07-30T04:47:43.707Z,8.20
2022-07-30T04:51:45.969Z,7.67
2022-07-30T04:55:48.805Z,7.93
2022-07-30T04:59:50.099Z,8.20
2022-07-30T05:03:53.126Z,8.53
2022-07-30T05:07:55.843Z,8.23
2022-07-30T05:11:58.693Z,9.37
2022-07-30T05:15:59.863Z,8.30
2022-07-30T05:20:01.257Z,9.30
2022-07-30T05:24:04.166Z,9.27
2022-07-30T05:28:05.600Z,10.90
2022-07-30T05:32:07.382Z,10.97
2022-07-30T05:36:09.089Z,10.97
2022-07-30T05:40:11.835Z,8.30
2022-07-30T05:44:13.074Z,12.17
2022-07-30T05:48:14.304Z,12.97
2022-07-30T05:52:15.550Z,10.27
2022-07-30T05:56:16.797Z,9.23
2022-07-30T06:00:18.294Z,11.50
2022-07-30T06:04:19.661Z,9.93
2022-07-30T06:08:20.999Z,12.00
2022-07-30T06:12:22.224Z,9.33
2022-07-30T06:16:23.489Z,10.30
2022-07-30T06:20:24.790Z,9.80
2022-07-30T06:24:26.135Z,11.33
2022-07-30T06:28:38.419Z,11.63
2022-07-30T06:32:33.486Z,10.13
2022-07-30T06:36:34.620Z,12.00
2022-07-30T06:40:35.960Z,10.40
2022-07-30T06:44:37.180Z,12.00
2022-07-30T06:48:38.419Z,10.93
2022-07-30T06:52:39.649Z,9.87
2022-07-30T06:56:40.875Z,11.03
2022-07-30T07:00:43.926Z,9.83
2022-07-30T07:04:45.155Z,11.87
2022-07-30T07:08:46.457Z,10.63
2022-07-30T07:12:47.766Z,8.57
2022-07-30T07:16:49.361Z,9.77
2022-07-30T07:20:50.521Z,9.20
2022-07-30T07:24:51.741Z,10.40
2022-07-30T07:28:52.982Z,11.53
2022-07-30T07:32:54.304Z,10.37
2022-07-30T07:36:55.540Z,10.97
2022-07-30T07:40:56.973Z,10.37
2022-07-30T07:44:58.114Z,9.90
2022-07-30T07:48:59.398Z,11.30
2022-07-30T07:53:01.180Z,10.07
2022-07-30T07:57:04.890Z,12.37
2022-07-30T08:01:06.926Z,10.83
2022-07-30T08:05:11.772Z,10.97
2022-07-30T08:09:12.995Z,11.40
2022-07-30T08:13:47.950Z,9.63
2022-07-30T08:17:19.217Z,13.03
2022-07-30T08:21:22.189Z,11.97
2022-07-30T08:25:24.487Z,11.57
2022-07-30T08:29:25.772Z,37.00
2022-07-30T08:33:27.433Z,14.43
2022-07-30T08:37:29.183Z,11.57
2022-07-30T08:41:30.789Z,10.43
2022-07-30T08:45:34.667Z,9.60
2022-07-30T08:49:37.255Z,8.90
2022-07-30T08:53:39.491Z,9.57
2022-07-30T08:57:41.844Z,9.40
2022-07-30T09:01:43.384Z,9.97
2022-07-30T09:05:45.802Z,8.90
2022-07-30T09:09:47.039Z,6.23
2022-07-30T09:13:50.184Z,8.10
2022-07-30T09:17:57.573Z,8.23
2022-07-30T09:22:01.137Z,7.17
2022-07-30T09:26:02.374Z,7.73
2022-07-30T09:30:04.193Z,8.50
2022-07-30T09:34:09.169Z,6.53
2022-07-30T09:38:11.105Z,7.00
2022-07-30T09:42:25.033Z,7.90
2022-07-30T09:46:46.610Z,8.27
2022-07-30T09:50:50.227Z,7.30
2022-07-30T09:54:52.969Z,8.43
2022-07-30T09:58:56.553Z,6.23
2022-07-30T10:03:12.396Z,7.40
2022-07-30T10:07:09.355Z,6.80
2022-07-30T10:11:15.716Z,7.20
2022-07-30T10:15:20.134Z,7.13
2022-07-30T10:19:40.058Z,8.00
2022-07-30T10:23:27.371Z,7.83
2022-07-30T10:27:29.321Z,8.60
2022-07-30T10:31:49.332Z,9.80
2022-07-30T10:35:38.319Z,8.60
2022-07-30T10:39:47.166Z,6.87
2022-07-30T10:44:10.742Z,6.50
2022-07-30T10:48:13.757Z,6.30
2022-07-30T10:52:20.197Z,6.93
2022-07-30T10:56:25.863Z,7.10
2022-07-30T11:00:30.343Z,7.43
2022-07-30T11:04:31.702Z,6.67
2022-07-30T11:08:36.653Z,6.00
2022-07-30T11:12:46.631Z,5.07
2022-07-30T11:16:53.592Z,5.53
2022-07-30T11:21:16.528Z,5.73
2022-07-30T11:25:50.600Z,4.90
2022-07-30T11:29:51.138Z,5.20
2022-07-30T11:33:43.424Z,4.63
2022-07-30T11:38:08.846Z,4.17
2022-07-30T11:42:31.574Z,4.90
2022-07-30T11:46:33.811Z,4.27
2022-07-30T11:50:37.563Z,4.20
2022-07-30T11:54:53.517Z,4.53
2022-07-30T11:59:05.927Z,4.10
2022-07-30T12:03:12.695Z,4.73
2022-07-30T12:07:15.897Z,4.40
2022-07-30T12:11:17.383Z,3.80
2022-07-30T12:15:36.893Z,3.90
2022-07-30T12:19:47.366Z,4.20
2022-07-30T12:23:57.444Z,4.13
2022-07-30T12:27:58.982Z,3.43
2022-07-30T12:32:00.781Z,3.70
2022-07-30T12:36:02.234Z,3.50
2022-07-30T12:40:15.032Z,7.70
2022-07-30T12:44:38.811Z,3.63
2022-07-30T12:48:51.918Z,3.50
2022-07-30T12:52:55.314Z,2.90
2022-07-30T12:57:03.390Z,3.10
2022-07-30T13:01:06.326Z,2.77
2022-07-30T13:05:10.974Z,3.77
2022-07-30T13:09:22.097Z,3.33
2022-07-30T13:13:23.307Z,3.67
2022-07-30T13:17:24.421Z,3.13
2022-07-30T13:21:25.636Z,3.23
2022-07-30T13:25:27.338Z,3.43
2022-07-30T13:29:30.479Z,3.20
2022-07-30T13:33:31.599Z,3.33
2022-07-30T13:37:38.614Z,2.80
2022-07-30T13:41:36.705Z,3.70
2022-07-30T13:45:38.594Z,3.87
2022-07-30T13:49:41.749Z,3.43
2022-07-30T13:53:42.982Z,4.37
2022-07-30T13:57:45.063Z,3.87
2022-07-30T14:01:46.490Z,3.50
2022-07-30T14:05:47.960Z,3.60
2022-07-30T14:09:54.061Z,3.13
2022-07-30T14:13:52.307Z,3.13
2022-07-30T14:17:56.634Z,3.50
2022-07-30T14:21:57.147Z,3.30
2022-07-30T14:25:58.336Z,3.90
2022-07-30T14:30:00.075Z,3.73
2022-07-30T14:34:01.903Z,4.20
2022-07-30T14:42:10.592Z,3.80
2022-07-30T14:46:11.987Z,3.70
2022-07-30T14:50:13.203Z,4.10
2022-07-30T14:54:14.412Z,4.33
2022-07-30T14:58:15.660Z,4.10
2022-07-30T15:02:16.881Z,3.70
2022-07-30T15:06:17.999Z,3.90
2022-07-30T15:10:19.234Z,4.20
2022-07-30T15:14:20.663Z,3.70
2022-07-30T15:18:22.571Z,4.40
2022-07-30T15:22:23.706Z,4.27
2022-07-30T15:26:24.923Z,3.00
2022-07-30T15:30:26.359Z,3.60
2022-07-30T15:34:30.276Z,2.90
2022-07-30T15:38:31.913Z,2.60
2022-07-30T15:42:33.241Z,2.40
2022-07-30T15:46:35.523Z,2.80
2022-07-30T15:50:36.811Z,2.70
2022-07-30T15:54:38.699Z,2.90
2022-07-30T15:58:43.515Z,2.90
2022-07-30T16:02:43.717Z,2.40
2022-07-30T16:06:44.958Z,3.10
2022-07-30T16:10:46.703Z,3.07
2022-07-30T16:14:47.958Z,3.40
2022-07-30T16:18:49.273Z,3.20
2022-07-30T16:22:50.503Z,4.27
2022-07-30T16:26:51.707Z,3.07
2022-07-30T16:30:53.269Z,3.47
2022-07-30T16:34:54.465Z,3.37
2022-07-30T16:38:55.813Z,3.20
2022-07-30T16:42:57.219Z,2.73
2022-07-30T16:47:00.120Z,2.50
2022-07-30T16:51:01.638Z,2.37
2022-07-30T16:55:03.150Z,2.67
2022-07-30T16:59:04.533Z,3.07
2022-07-30T17:03:05.771Z,2.17
2022-07-30T17:07:07.006Z,2.40
2022-07-30T17:11:08.803Z,2.90
2022-07-30T17:15:11.379Z,3.20
2022-07-30T17:19:12.603Z,2.40
2022-07-30T17:23:13.830Z,2.10
2022-07-30T17:27:15.059Z,2.30
2022-07-30T17:31:16.290Z,2.50
2022-07-30T17:35:17.824Z,2.50
2022-07-30T17:40:27.625Z,3.10
2022-07-30T17:43:24.163Z,3.60
2022-07-30T17:47:25.374Z,3.30
2022-07-30T17:51:27.339Z,4.00
2022-07-30T17:55:28.642Z,3.13
2022-07-30T17:59:29.761Z,3.77
2022-07-30T18:03:31.789Z,5.73
2022-07-30T18:07:32.922Z,2.70
2022-07-30T18:11:34.138Z,2.70
2022-07-30T18:15:35.929Z,2.37
2022-07-30T18:19:37.364Z,2.40
2022-07-30T18:23:38.480Z,2.67
2022-07-30T18:27:39.605Z,3.10
2022-07-30T18:31:40.823Z,2.17
2022-07-30T18:35:42.647Z,2.57
2022-07-30T18:39:43.786Z,3.20
2022-07-30T18:43:48.111Z,2.87
2022-07-30T18:47:48.540Z,2.93
2022-07-30T18:51:50.037Z,3.43
2022-07-30T18:55:51.472Z,3.70
2022-07-30T18:59:52.978Z,3.80
2022-07-30T19:03:54.113Z,3.33
2022-07-30T19:07:57.266Z,3.40
2022-07-30T19:11:58.488Z,3.20
2022-07-30T19:15:59.697Z,3.10
2022-07-30T19:20:01.648Z,2.70
2022-07-30T19:24:03.811Z,3.27
2022-07-30T19:28:05.083Z,3.13
2022-07-30T19:32:06.819Z,2.80
2022-07-30T19:36:09.234Z,2.83
2022-07-30T19:40:12.711Z,2.57
2022-07-30T19:44:17.596Z,2.87
2022-07-30T19:48:28.846Z,2.70
2022-07-30T19:52:25.483Z,3.23
2022-07-30T19:56:27.612Z,3.00
2022-07-30T20:00:28.841Z,10.00
2022-07-30T20:04:30.272Z,5.80
2022-07-30T20:08:31.487Z,3.30
2022-07-30T20:12:32.616Z,4.93
2022-07-30T20:16:34.939Z,4.20
2022-07-30T20:20:36.187Z,3.20
2022-07-30T20:24:39.307Z,2.67
2022-07-30T20:28:46.252Z,4.50
2022-07-30T20:32:49.216Z,4.00
2022-07-30T20:36:50.583Z,3.93
2022-07-30T20:40:52.603Z,4.10
2022-07-30T20:44:55.735Z,3.70
2022-07-30T20:48:57.073Z,5.40
2022-07-30T20:52:58.762Z,8.33
2022-07-30T20:57:00.005Z,17.07
2022-07-30T21:01:01.809Z,5.40
2022-07-30T21:05:05.617Z,4.63
2022-07-30T21:09:07.854Z,13.93
2022-07-30T21:13:11.005Z,7.27
2022-07-30T21:17:12.406Z,6.70
2022-07-30T21:21:13.634Z,4.50
2022-07-30T21:25:15.055Z,3.53
2022-07-30T21:29:18.092Z,4.03
2022-07-30T21:33:19.396Z,3.30
2022-07-30T21:37:21.010Z,3.50
2022-07-30T21:41:40.153Z,3.00
2022-07-30T21:45:28.339Z,3.17
2022-07-30T21:49:28.999Z,3.47
2022-07-30T21:53:44.943Z,3.50
2022-07-30T21:57:36.500Z,3.57
2022-07-30T22:01:38.757Z,3.63
2022-07-30T22:05:41.340Z,3.73
2022-07-30T22:09:43.450Z,3.50
2022-07-30T22:13:53.667Z,3.60
2022-07-30T22:18:00.813Z,13.93
2022-07-30T22:21:51.228Z,3.40
2022-07-30T22:25:53.287Z,3.00
2022-07-30T22:29:56.315Z,3.77
2022-07-30T22:33:57.505Z,4.13
2022-07-30T22:37:59.233Z,4.00
2022-07-30T22:42:01.230Z,3.80
2022-07-30T22:46:02.910Z,3.80
2022-07-30T22:50:08.171Z,4.10
2022-07-30T22:54:13.049Z,3.97
2022-07-30T22:58:12.782Z,4.60
2022-07-30T23:02:14.698Z,4.50
2022-07-30T23:06:17.730Z,4.60
2022-07-30T23:10:21.266Z,4.33
2022-07-30T23:14:23.877Z,4.20
2022-07-30T23:18:26.901Z,4.50
2022-07-30T23:22:28.023Z,4.53
2022-07-30T23:26:29.151Z,3.60
2022-07-30T23:30:33.823Z,4.10
2022-07-30T23:34:33.454Z,5.13
2022-07-30T23:38:36.401Z,4.40
2022-07-30T23:42:37.619Z,4.63
2022-07-30T23:46:40.186Z,4.53
2022-07-30T23:50:41.386Z,4.97
2022-07-30T23:54:42.516Z,3.90
2022-07-30T23:58:45.650Z,5.13
